Time;durP1;ratioP1;P1;durP2;ratioP2;P2;SDS_P1;SDS_P2;PMS_P1;PMS_P2;Temp;Humidity;BMP_temperature;BMP_pressure;BME280_temperature;BME280_humidity;BME280_pressure;Samples;Min_cycle;Max_cycle;Signal;HPM_P1;HPM_P2
2023/12/31 00:00:55;;;;;;;26.60;12.70;;;6.80;99.90;;;;;;5053349;28;20437;-76
2023/12/31 00:03:21;;;;;;;21.53;10.07;;;6.80;99.90;;;;;;5058899;28;20170;-76
2023/12/31 00:05:47;;;;;;;17.97;9.67;;;6.80;99.90;;;;;;5071435;28;20185;-72
2023/12/31 00:08:13;;;;;;;21.47;10.10;;;6.80;99.90;;;;;;5053085;28;20204;-72
2023/12/31 00:10:39;;;;;;;18.10;9.90;;;6.80;99.90;;;;;;5053138;28;20678;-76
2023/12/31 00:13:05;;;;;;;16.77;9.80;;;6.80;99.90;;;;;;5053047;28;20802;-76
2023/12/31 00:15:31;;;;;;;21.63;10.23;;;6.80;99.90;;;;;;5051387;28;20405;-76
2023/12/31 00:17:57;;;;;;;21.33;10.90;;;6.80;99.90;;;;;;5056489;28;20456;-71
2023/12/31 00:20:23;;;;;;;21.37;10.70;;;6.80;99.90;;;;;;5071537;28;20251;-73
2023/12/31 00:22:48;;;;;;;20.80;10.83;;;6.80;99.90;;;;;;5072933;28;20253;-72
2023/12/31 00:25:15;;;;;;;11.00;9.73;;;6.70;99.90;;;;;;5072098;28;20193;-75
2023/12/31 00:27:41;;;;;;;17.77;9.67;;;6.80;99.90;;;;;;5072981;28;20194;-76
2023/12/31 00:30:08;;;;;;;13.57;8.33;;;6.70;99.90;;;;;;5072743;28;21087;-76
2023/12/31 00:32:33;;;;;;;23.97;9.60;;;6.70;99.90;;;;;;5071195;28;20420;-74
2023/12/31 00:34:59;;;;;;;18.93;9.77;;;6.70;99.90;;;;;;5071864;28;20395;-76
2023/12/31 00:37:25;;;;;;;16.80;9.07;;;6.70;99.90;;;;;;5072889;28;20194;-73
2023/12/31 00:39:51;;;;;;;14.03;9.60;;;6.70;99.90;;;;;;5072798;28;20177;-75
2023/12/31 00:42:16;;;;;;;24.47;9.63;;;6.70;99.90;;;;;;5072736;28;20174;-76
2023/12/31 00:44:42;;;;;;;13.53;9.00;;;6.70;99.90;;;;;;5070754;28;20205;-77
2023/12/31 00:47:08;;;;;;;15.47;9.20;;;6.60;99.90;;;;;;5073183;28;20420;-71
2023/12/31 00:49:34;;;;;;;11.30;8.60;;;6.60;99.90;;;;;;5076082;28;20415;-77
2023/12/31 00:51:59;;;;;;;15.83;9.10;;;6.60;99.90;;;;;;5076446;28;20588;-76
2023/12/31 00:54:25;;;;;;;14.90;8.77;;;6.60;99.90;;;;;;5076451;28;20182;-74
2023/12/31 00:56:51;;;;;;;14.97;8.50;;;6.60;99.90;;;;;;5075980;28;20627;-76
2023/12/31 00:59:16;;;;;;;18.33;8.90;;;6.60;99.90;;;;;;5076455;28;20193;-75
2023/12/31 01:01:42;;;;;;;11.40;8.43;;;6.60;99.90;;;;;;5062815;28;20180;-71
2023/12/31 01:04:08;;;;;;;18.70;7.80;;;6.60;99.90;;;;;;5072648;28;20178;-76
2023/12/31 01:06:33;;;;;;;17.93;8.13;;;6.60;99.90;;;;;;5075575;28;20170;-72
2023/12/31 01:08:59;;;;;;;17.60;9.07;;;6.60;99.90;;;;;;5064214;28;20253;-72
2023/12/31 01:11:27;;;;;;;14.17;8.40;;;6.50;99.90;;;;;;5036321;28;20210;-75
2023/12/31 01:13:53;;;;;;;14.33;8.30;;;6.60;99.90;;;;;;5036457;28;20171;-76
2023/12/31 01:16:19;;;;;;;11.20;7.17;;;6.60;99.90;;;;;;5059817;28;20769;-76
2023/12/31 01:18:44;;;;;;;17.53;8.20;;;6.60;99.90;;;;;;5063796;28;20435;-76
2023/12/31 01:21:10;;;;;;;11.37;7.80;;;6.50;99.90;;;;;;5055763;28;20232;-72
2023/12/31 01:23:36;;;;;;;12.40;7.63;;;6.50;99.90;;;;;;5054994;28;20269;-76
2023/12/31 01:26:02;;;;;;;13.00;8.10;;;6.50;99.90;;;;;;5055025;28;20630;-74
2023/12/31 01:28:28;;;;;;;12.80;7.70;;;6.50;99.90;;;;;;5055270;28;20202;-76
2023/12/31 01:30:54;;;;;;;24.40;8.23;;;6.50;99.90;;;;;;5054739;28;20452;-76
2023/12/31 01:33:19;;;;;;;17.30;7.43;;;6.50;99.90;;;;;;5061494;28;20174;-72
2023/12/31 01:35:45;;;;;;;11.63;7.93;;;6.50;99.90;;;;;;5074101;28;20201;-73
2023/12/31 01:38:11;;;;;;;11.00;8.30;;;6.50;99.90;;;;;;5075743;28;20658;-72
2023/12/31 01:40:36;;;;;;;17.03;7.70;;;6.50;99.90;;;;;;5075433;28;20183;-76
2023/12/31 01:43:02;;;;;;;13.07;7.83;;;6.40;99.90;;;;;;5073471;28;20535;-75
2023/12/31 01:45:28;;;;;;;18.73;7.30;;;6.40;99.90;;;;;;5054431;28;20250;-72
2023/12/31 01:47:54;;;;;;;14.33;7.23;;;6.40;99.90;;;;;;5055314;28;20440;-76
2023/12/31 01:50:21;;;;;;;8.60;6.80;;;6.30;99.90;;;;;;5054180;28;20655;-77
2023/12/31 01:52:47;;;;;;;10.37;8.27;;;6.40;99.90;;;;;;5054594;28;20449;-72
2023/12/31 01:55:14;;;;;;;16.43;8.00;;;6.30;99.90;;;;;;5053732;28;20568;-76
2023/12/31 01:57:40;;;;;;;7.97;6.70;;;6.30;99.90;;;;;;5053564;28;20437;-75
2023/12/31 02:00:07;;;;;;;9.47;6.53;;;6.30;99.90;;;;;;5055307;28;20487;-72
2023/12/31 02:02:32;;;;;;;12.00;7.37;;;6.30;99.90;;;;;;5055133;28;20418;-74
2023/12/31 02:04:58;;;;;;;13.03;6.50;;;6.30;99.90;;;;;;5053933;28;20936;-76
2023/12/31 02:07:24;;;;;;;10.33;7.03;;;6.30;99.90;;;;;;5055245;28;20195;-75
2023/12/31 02:09:51;;;;;;;19.23;7.20;;;6.20;99.90;;;;;;5055151;28;20878;-71
2023/12/31 02:12:17;;;;;;;10.23;6.33;;;6.20;99.90;;;;;;5055311;28;20394;-75
2023/12/31 02:14:43;;;;;;;11.87;6.50;;;6.20;99.90;;;;;;5054292;28;20397;-72
2023/12/31 02:17:09;;;;;;;19.83;7.33;;;6.20;99.90;;;;;;5054961;28;20400;-74
2023/12/31 02:19:34;;;;;;;11.07;6.47;;;6.30;99.90;;;;;;5068438;28;20408;-76
2023/12/31 02:22:01;;;;;;;11.27;5.90;;;6.30;99.90;;;;;;5074860;28;20249;-74
2023/12/31 02:24:47;;;;;;;14.40;6.20;;;6.30;99.90;;;;;;5070230;28;20167;-72
2023/12/31 02:27:13;;;;;;;11.20;5.90;;;6.30;99.90;;;;;;5054722;28;20421;-76
2023/12/31 02:29:38;;;;;;;22.73;6.13;;;6.30;99.90;;;;;;5054856;28;20417;-76
2023/12/31 02:32:04;;;;;;;7.40;5.37;;;6.30;99.90;;;;;;5054860;28;20247;-75
2023/12/31 02:34:30;;;;;;;10.30;6.20;;;6.20;99.90;;;;;;5054120;28;20174;-76
2023/12/31 02:36:55;;;;;;;7.23;5.53;;;6.20;99.90;;;;;;5054220;28;20625;-73
2023/12/31 02:39:22;;;;;;;6.57;5.30;;;6.30;99.90;;;;;;5054735;28;20183;-72
2023/12/31 02:41:47;;;;;;;15.90;5.67;;;6.30;99.90;;;;;;5054784;28;20505;-72
2023/12/31 02:44:13;;;;;;;13.70;6.67;;;6.30;99.90;;;;;;5053245;28;20416;-72
2023/12/31 02:46:39;;;;;;;8.63;6.10;;;6.30;99.90;;;;;;5053621;28;20261;-72
2023/12/31 02:49:06;;;;;;;8.70;6.13;;;6.30;99.90;;;;;;5059940;28;20194;-71
2023/12/31 02:51:33;;;;;;;7.97;6.20;;;6.30;99.90;;;;;;5074486;28;20250;-75
2023/12/31 02:53:58;;;;;;;7.07;5.83;;;6.30;99.90;;;;;;5074400;28;20397;-75
2023/12/31 02:56:24;;;;;;;8.67;6.00;;;6.30;99.90;;;;;;5073169;28;20424;-72
2023/12/31 02:58:50;;;;;;;11.10;5.73;;;6.30;99.90;;;;;;5067844;28;20262;-72
2023/12/31 03:01:15;;;;;;;5.97;5.47;;;6.30;99.90;;;;;;5055381;28;20171;-74
2023/12/31 03:03:41;;;;;;;14.00;5.67;;;6.20;99.90;;;;;;5055354;28;20190;-72
2023/12/31 03:06:07;;;;;;;8.80;6.73;;;6.30;99.90;;;;;;5053294;28;20254;-77
2023/12/31 03:08:32;;;;;;;12.10;5.90;;;6.30;99.90;;;;;;5054185;28;20660;-74
2023/12/31 03:10:58;;;;;;;7.93;5.63;;;6.30;99.90;;;;;;5052106;28;20277;-76
2023/12/31 03:13:24;;;;;;;12.23;5.60;;;6.40;99.90;;;;;;5053373;28;20171;-76
2023/12/31 03:15:49;;;;;;;5.33;4.83;;;6.30;99.90;;;;;;5052793;28;20631;-71
2023/12/31 03:18:15;;;;;;;12.03;5.03;;;6.40;99.90;;;;;;5053688;28;20253;-77
2023/12/31 03:20:41;;;;;;;11.47;5.83;;;6.40;99.90;;;;;;5072766;28;20177;-72
2023/12/31 03:23:06;;;;;;;8.03;5.00;;;6.30;99.90;;;;;;5073780;28;20170;-72
2023/12/31 03:25:32;;;;;;;8.73;5.70;;;6.40;99.90;;;;;;5072735;28;20186;-75
2023/12/31 03:27:58;;;;;;;12.37;5.60;;;6.40;99.90;;;;;;5072691;28;20252;-75
2023/12/31 03:30:23;;;;;;;6.03;5.03;;;6.30;99.90;;;;;;5062678;28;20219;-71
2023/12/31 03:32:49;;;;;;;15.77;5.93;;;6.30;99.90;;;;;;5053128;28;20647;-76
2023/12/31 03:35:15;;;;;;;10.27;5.67;;;6.40;99.90;;;;;;5050983;28;20655;-77
2023/12/31 03:37:46;;;;;;;9.33;4.80;;;6.40;99.90;;;;;;5053583;28;20194;-76
2023/12/31 03:40:13;;;;;;;9.20;5.23;;;6.40;99.90;;;;;;5053677;28;20167;-76
2023/12/31 03:42:38;;;;;;;14.07;6.10;;;6.30;99.90;;;;;;5053124;28;20426;-77
2023/12/31 03:45:04;;;;;;;7.10;5.23;;;6.40;99.90;;;;;;5051723;28;20418;-73
2023/12/31 03:47:30;;;;;;;9.30;5.33;;;6.30;99.90;;;;;;5053426;28;20191;-75
2023/12/31 03:49:56;;;;;;;14.03;6.27;;;6.30;99.90;;;;;;5066056;28;20508;-73
2023/12/31 03:52:21;;;;;;;11.70;6.40;;;6.30;99.90;;;;;;5071099;28;20178;-72
2023/12/31 03:54:47;;;;;;;11.90;5.90;;;6.30;99.90;;;;;;5072670;28;20170;-76
2023/12/31 03:57:14;;;;;;;11.63;5.10;;;6.30;99.90;;;;;;5073228;28;20689;-71
2023/12/31 03:59:39;;;;;;;6.87;5.93;;;6.30;99.90;;;;;;5073305;28;20201;-71
2023/12/31 04:02:05;;;;;;;10.57;6.17;;;6.30;99.90;;;;;;5068830;28;21050;-77
2023/12/31 04:04:31;;;;;;;6.07;5.40;;;6.30;99.90;;;;;;5053305;28;20179;-75
2023/12/31 04:06:57;;;;;;;9.77;5.70;;;6.30;99.90;;;;;;5052700;28;20398;-72
2023/12/31 04:09:22;;;;;;;7.03;5.20;;;6.30;99.90;;;;;;5052727;28;20175;-74
2023/12/31 04:11:48;;;;;;;8.63;4.80;;;6.30;99.90;;;;;;5052832;28;20259;-76
2023/12/31 04:14:14;;;;;;;7.23;5.03;;;6.30;99.90;;;;;;5051951;28;20170;-73
2023/12/31 04:16:39;;;;;;;5.57;4.73;;;6.30;99.90;;;;;;5050932;28;20216;-77
2023/12/31 04:19:05;;;;;;;5.50;4.30;;;6.30;99.90;;;;;;5052745;28;20564;-71
2023/12/31 04:21:31;;;;;;;9.67;5.37;;;6.30;99.90;;;;;;5052586;28;20174;-76
2023/12/31 04:23:56;;;;;;;5.93;5.00;;;6.30;99.90;;;;;;5053061;28;20173;-76
2023/12/31 04:26:22;;;;;;;13.03;5.40;;;6.30;99.90;;;;;;5051389;28;20658;-76
2023/12/31 04:28:48;;;;;;;10.50;5.27;;;6.30;99.90;;;;;;5052909;28;20197;-76
2023/12/31 04:31:13;;;;;;;14.83;5.57;;;6.40;99.90;;;;;;5051214;28;20206;-77
2023/12/31 04:33:39;;;;;;;8.63;5.03;;;6.40;99.90;;;;;;5051968;28;20178;-77
2023/12/31 04:36:05;;;;;;;8.53;5.00;;;6.40;99.90;;;;;;5051870;28;20194;-76
2023/12/31 04:38:32;;;;;;;9.60;5.60;;;6.40;99.90;;;;;;5052766;28;20655;-73
2023/12/31 04:40:58;;;;;;;7.17;5.57;;;6.40;99.90;;;;;;5052681;28;20421;-76
2023/12/31 04:43:24;;;;;;;14.13;5.80;;;6.50;99.90;;;;;;5052710;28;20409;-77
2023/12/31 04:45:49;;;;;;;8.03;4.77;;;6.50;99.90;;;;;;5050555;28;20413;-76
2023/12/31 04:48:15;;;;;;;11.03;4.77;;;6.40;99.90;;;;;;5052453;28;20545;-72
2023/12/31 04:50:42;;;;;;;9.70;4.97;;;6.40;99.90;;;;;;5052367;28;20679;-72
2023/12/31 04:53:08;;;;;;;7.13;4.43;;;6.40;99.90;;;;;;5052804;28;20159;-73
2023/12/31 04:55:34;;;;;;;11.63;4.40;;;6.50;99.90;;;;;;5051819;28;20397;-75
2023/12/31 04:58:00;;;;;;;8.13;4.97;;;6.50;99.90;;;;;;5052420;28;20186;-72
2023/12/31 05:00:25;;;;;;;9.77;6.07;;;6.50;99.90;;;;;;5051979;28;20178;-76
2023/12/31 05:02:51;;;;;;;6.00;4.70;;;6.50;99.90;;;;;;5050003;28;20248;-71
2023/12/31 05:05:17;;;;;;;5.20;4.70;;;6.50;99.90;;;;;;5046475;28;20182;-74
2023/12/31 05:07:42;;;;;;;11.47;4.40;;;6.50;99.90;;;;;;5052513;28;20195;-72
2023/12/31 05:10:09;;;;;;;4.87;4.47;;;6.50;99.90;;;;;;5052224;28;20194;-75
2023/12/31 05:12:35;;;;;;;5.93;4.03;;;6.50;99.90;;;;;;5052658;28;20171;-76
2023/12/31 05:15:00;;;;;;;8.30;3.97;;;6.50;99.90;;;;;;5051547;28;20417;-71
2023/12/31 05:17:26;;;;;;;5.10;4.27;;;6.50;99.90;;;;;;5051082;28;20202;-75
2023/12/31 05:19:52;;;;;;;6.90;4.90;;;6.50;99.90;;;;;;5054849;28;20547;-75
2023/12/31 05:22:18;;;;;;;4.87;4.47;;;6.40;99.90;;;;;;5072070;28;20249;-71
2023/12/31 05:24:44;;;;;;;8.80;4.50;;;6.40;99.90;;;;;;5071456;28;20479;-71
2023/12/31 05:27:09;;;;;;;5.87;4.40;;;6.40;99.90;;;;;;5072351;28;20439;-71
2023/12/31 05:29:35;;;;;;;7.87;4.83;;;6.40;99.90;;;;;;5072381;28;20190;-71
2023/12/31 05:32:01;;;;;;;13.00;4.50;;;6.30;99.90;;;;;;5072420;28;20248;-71
2023/12/31 05:34:26;;;;;;;8.43;4.37;;;6.40;99.90;;;;;;5073903;28;20170;-71
2023/12/31 05:36:52;;;;;;;5.30;3.83;;;6.40;99.90;;;;;;5075004;28;20166;-75
2023/12/31 05:39:18;;;;;;;4.93;4.10;;;6.40;99.90;;;;;;5075765;28;20191;-72
2023/12/31 05:41:44;;;;;;;4.90;3.97;;;6.40;99.90;;;;;;5074460;28;20236;-71
2023/12/31 05:44:09;;;;;;;10.30;4.30;;;6.40;99.90;;;;;;5057051;28;20417;-72
2023/12/31 05:46:35;;;;;;;4.67;3.10;;;6.40;99.90;;;;;;5054646;28;20206;-75
2023/12/31 05:49:01;;;;;;;8.27;4.67;;;6.40;99.90;;;;;;5055715;28;20674;-72
2023/12/31 05:51:26;;;;;;;5.03;4.50;;;6.40;99.90;;;;;;5071221;28;20558;-74
2023/12/31 05:53:52;;;;;;;11.37;4.57;;;6.40;99.90;;;;;;5075234;28;20242;-75
2023/12/31 05:56:18;;;;;;;4.70;4.30;;;6.40;99.90;;;;;;5074516;28;20232;-72
2023/12/31 05:58:46;;;;;;;7.00;3.70;;;6.40;99.90;;;;;;5075073;28;20178;-71
2023/12/31 06:01:12;;;;;;;5.37;4.10;;;6.40;99.90;;;;;;5075604;28;20166;-72
2023/12/31 06:03:38;;;;;;;5.37;3.80;;;6.40;99.90;;;;;;5075545;28;20408;-72
2023/12/31 06:06:04;;;;;;;8.10;4.83;;;6.50;99.90;;;;;;5059533;28;20309;-72
2023/12/31 06:08:30;;;;;;;7.33;3.93;;;6.50;99.90;;;;;;5054632;28;20436;-74
2023/12/31 06:10:56;;;;;;;5.47;4.17;;;6.50;99.90;;;;;;5053719;28;20457;-71
2023/12/31 06:13:21;;;;;;;4.40;3.60;;;6.60;99.90;;;;;;5054963;28;20159;-73
2023/12/31 06:15:47;;;;;;;5.43;4.07;;;6.50;99.90;;;;;;5054000;28;20420;-72
2023/12/31 06:18:13;;;;;;;4.20;3.90;;;6.50;99.90;;;;;;5055165;28;20552;-74
2023/12/31 06:20:39;;;;;;;8.73;4.30;;;6.50;99.90;;;;;;5064005;28;20182;-72
2023/12/31 06:23:04;;;;;;;8.20;4.50;;;6.50;99.90;;;;;;5075065;28;20170;-74
2023/12/31 06:25:30;;;;;;;4.47;4.07;;;6.40;99.90;;;;;;5073880;28;20527;-73
2023/12/31 06:27:57;;;;;;;6.83;4.80;;;6.40;99.90;;;;;;5074578;28;20226;-74
2023/12/31 06:30:22;;;;;;;7.50;3.80;;;6.40;99.90;;;;;;5074516;28;20190;-75
2023/12/31 06:32:48;;;;;;;4.70;4.30;;;6.50;99.90;;;;;;5074869;28;20466;-72
2023/12/31 06:35:14;;;;;;;7.20;3.80;;;6.50;99.90;;;;;;5072719;28;20175;-72
2023/12/31 06:37:40;;;;;;;8.90;3.57;;;6.50;99.90;;;;;;5074691;28;20704;-75
2023/12/31 06:40:08;;;;;;;8.93;4.13;;;6.50;99.90;;;;;;5056963;28;20175;-74
2023/12/31 06:42:33;;;;;;;4.70;3.40;;;6.50;99.90;;;;;;5054213;28;20501;-72
2023/12/31 06:44:59;;;;;;;9.87;4.23;;;6.50;99.90;;;;;;5052389;28;20504;-70
2023/12/31 06:47:25;;;;;;;6.50;4.27;;;6.50;99.90;;;;;;5054706;28;20191;-73
2023/12/31 06:49:52;;;;;;;11.03;4.20;;;6.50;99.90;;;;;;5060428;28;20177;-75
2023/12/31 06:52:18;;;;;;;4.40;4.03;;;6.40;99.90;;;;;;5074304;28;20194;-74
2023/12/31 06:54:44;;;;;;;12.40;5.20;;;6.40;99.90;;;;;;5060846;28;20799;-72
2023/12/31 06:57:09;;;;;;;5.87;4.50;;;6.40;99.90;;;;;;5054040;28;20516;-72
2023/12/31 06:59:35;;;;;;;6.33;3.70;;;6.40;99.90;;;;;;5057560;28;20181;-74
2023/12/31 07:02:00;;;;;;;4.97;4.37;;;6.50;99.90;;;;;;5055531;28;20183;-75
2023/12/31 07:04:26;;;;;;;7.50;4.60;;;6.40;99.90;;;;;;5053609;28;20174;-72
2023/12/31 07:06:52;;;;;;;8.93;3.80;;;6.40;99.90;;;;;;5052780;28;20171;-74
2023/12/31 07:09:17;;;;;;;4.87;4.00;;;6.40;99.90;;;;;;5053685;28;20190;-74
2023/12/31 07:11:43;;;;;;;4.97;4.17;;;6.40;99.90;;;;;;5053957;28;20209;-72
2023/12/31 07:14:09;;;;;;;5.20;4.57;;;6.40;99.90;;;;;;5049835;28;20203;-72
2023/12/31 07:16:34;;;;;;;4.50;4.10;;;6.30;99.90;;;;;;5053135;28;20170;-75
2023/12/31 07:19:00;;;;;;;8.33;4.63;;;6.30;99.90;;;;;;5060628;28;20222;-75
2023/12/31 07:21:26;;;;;;;4.70;4.10;;;6.30;99.90;;;;;;5073299;28;20176;-76
2023/12/31 07:23:52;;;;;;;6.17;3.70;;;6.30;99.90;;;;;;5073725;28;20170;-73
2023/12/31 07:26:25;;;;;;;5.13;4.47;;;6.30;99.90;;;;;;5072928;28;20248;-74
2023/12/31 07:28:51;;;;;;;4.40;4.00;;;6.40;99.90;;;;;;5065587;28;20206;-75
2023/12/31 07:31:16;;;;;;;8.00;5.47;;;6.30;99.90;;;;;;5053513;28;20452;-73
2023/12/31 07:33:43;;;;;;;6.10;4.10;;;6.30;99.90;;;;;;5055162;28;20417;-76
2023/12/31 07:36:09;;;;;;;4.80;3.67;;;6.30;99.90;;;;;;5072476;28;20216;-75
2023/12/31 07:38:35;;;;;;;7.33;3.97;;;6.30;99.90;;;;;;5073599;28;20420;-72
2023/12/31 07:41:00;;;;;;;6.00;4.20;;;6.30;99.90;;;;;;5073388;28;20458;-73
2023/12/31 07:43:26;;;;;;;4.70;4.00;;;6.30;99.90;;;;;;5073517;28;20257;-75
2023/12/31 07:45:52;;;;;;;3.80;3.50;;;6.30;99.90;;;;;;5072737;28;20178;-72
2023/12/31 07:48:19;;;;;;;5.90;4.17;;;6.30;99.90;;;;;;5072044;28;20937;-73
2023/12/31 07:50:44;;;;;;;6.10;3.57;;;6.30;99.90;;;;;;5073160;28;20662;-75
2023/12/31 07:53:10;;;;;;;5.23;4.43;;;6.20;99.90;;;;;;5073467;28;20419;-76
2023/12/31 07:55:36;;;;;;;8.53;4.30;;;6.20;99.90;;;;;;5071809;28;20220;-75
2023/12/31 07:58:02;;;;;;;4.23;3.93;;;6.20;99.90;;;;;;5055862;28;20187;-73
2023/12/31 08:00:27;;;;;;;9.03;4.00;;;6.20;99.90;;;;;;5053106;28;20523;-74
2023/12/31 08:02:53;;;;;;;6.40;3.63;;;6.20;99.90;;;;;;5053384;28;20240;-72
2023/12/31 08:05:18;;;;;;;4.17;3.47;;;6.20;99.90;;;;;;5066253;28;20656;-75
2023/12/31 08:07:44;;;;;;;4.30;3.90;;;6.20;99.90;;;;;;5054787;28;20199;-72
2023/12/31 08:10:11;;;;;;;6.93;3.90;;;6.20;99.90;;;;;;5052850;28;20217;-75
2023/12/31 08:12:37;;;;;;;9.33;4.70;;;6.20;99.90;;;;;;5057487;28;20212;-73
2023/12/31 08:15:03;;;;;;;5.17;4.30;;;6.20;99.90;;;;;;5072287;28;20400;-74
2023/12/31 08:17:29;;;;;;;4.73;4.33;;;6.20;99.90;;;;;;5071501;28;20424;-75
2023/12/31 08:19:55;;;;;;;6.77;4.47;;;6.20;99.90;;;;;;5061994;28;20959;-72
2023/12/31 08:22:20;;;;;;;4.37;3.23;;;6.10;99.90;;;;;;5053047;28;20174;-73
2023/12/31 08:24:46;;;;;;;5.50;4.00;;;6.20;99.90;;;;;;5051815;28;20250;-73
2023/12/31 08:27:12;;;;;;;4.33;3.80;;;6.20;99.90;;;;;;5052805;28;20627;-75
2023/12/31 08:29:40;;;;;;;4.27;4.07;;;6.10;99.90;;;;;;5052731;28;20178;-74
2023/12/31 08:32:06;;;;;;;4.70;4.30;;;6.10;99.90;;;;;;5065571;28;20274;-74
2023/12/31 08:34:32;;;;;;;5.10;4.30;;;6.10;99.90;;;;;;5067448;28;20496;-76
2023/12/31 08:36:57;;;;;;;8.97;4.87;;;6.10;99.90;;;;;;5051485;28;20631;-76
2023/12/31 08:39:23;;;;;;;4.87;4.40;;;6.10;99.90;;;;;;5059301;28;20169;-72
2023/12/31 08:41:49;;;;;;;6.40;4.30;;;6.10;99.90;;;;;;5072888;28;20166;-75
2023/12/31 08:44:14;;;;;;;4.77;4.37;;;6.10;99.90;;;;;;5072855;28;20512;-72
2023/12/31 08:46:40;;;;;;;7.73;4.00;;;6.20;99.90;;;;;;5071604;28;20208;-73
2023/12/31 08:49:07;;;;;;;5.47;4.63;;;6.10;99.90;;;;;;5069167;28;20201;-73
2023/12/31 08:51:32;;;;;;;5.90;5.60;;;6.10;99.90;;;;;;5052768;28;20270;-74
2023/12/31 08:53:58;;;;;;;5.87;3.83;;;6.20;99.90;;;;;;5051418;28;20514;-75
2023/12/31 08:56:24;;;;;;;5.07;4.13;;;6.20;99.90;;;;;;5051759;28;20234;-72
2023/12/31 08:58:49;;;;;;;8.10;4.90;;;6.20;99.90;;;;;;5052493;28;20182;-72
2023/12/31 09:01:16;;;;;;;7.33;3.90;;;6.20;99.90;;;;;;5052504;28;20207;-72
2023/12/31 09:03:42;;;;;;;4.23;3.90;;;6.20;99.90;;;;;;5052797;28;20195;-73
2023/12/31 09:06:10;;;;;;;5.10;4.10;;;6.20;99.90;;;;;;5051307;28;20464;-76
2023/12/31 09:08:36;;;;;;;3.97;3.77;;;6.30;99.90;;;;;;5069642;28;20202;-72
2023/12/31 09:11:02;;;;;;;5.33;3.97;;;6.30;99.90;;;;;;5076475;28;20436;-75
2023/12/31 09:13:28;;;;;;;4.97;3.87;;;6.30;99.90;;;;;;5069816;28;20451;-75
2023/12/31 09:15:55;;;;;;;6.13;4.60;;;6.30;99.90;;;;;;5055210;28;20948;-73
2023/12/31 09:18:23;;;;;;;4.43;4.10;;;6.40;99.90;;;;;;5056538;28;20585;-75
2023/12/31 09:20:49;;;;;;;6.10;5.00;;;6.30;99.90;;;;;;5053416;28;20451;-73
2023/12/31 09:23:16;;;;;;;4.97;4.10;;;6.40;99.90;;;;;;5055425;28;20425;-74
2023/12/31 09:25:42;;;;;;;4.60;4.30;;;6.50;99.90;;;;;;5054999;28;20451;-73
2023/12/31 09:28:08;;;;;;;4.80;3.80;;;6.50;99.90;;;;;;5056011;28;20449;-74
2023/12/31 09:30:34;;;;;;;4.03;3.73;;;6.50;99.90;;;;;;5054711;28;20194;-75
2023/12/31 09:32:59;;;;;;;9.03;4.80;;;6.50;99.90;;;;;;5056066;28;20167;-76
2023/12/31 09:35:25;;;;;;;4.53;4.07;;;6.60;99.90;;;;;;5055639;28;20235;-73
2023/12/31 09:37:51;;;;;;;5.03;4.20;;;6.60;99.90;;;;;;5055973;28;20178;-74
2023/12/31 09:40:17;;;;;;;5.80;4.20;;;6.60;99.90;;;;;;5055179;28;20171;-72
2023/12/31 09:42:52;;;;;;;6.77;4.27;;;6.60;99.90;;;;;;5055940;28;20248;-72
2023/12/31 09:45:23;;;;;;;7.40;4.57;;;6.70;99.90;;;;;;5054965;28;20905;-74
2023/12/31 09:47:53;;;;;;;12.27;4.30;;;6.70;99.90;;;;;;5056177;28;20414;-73
2023/12/31 09:50:21;;;;;;;11.20;4.20;;;6.80;99.90;;;;;;5035704;28;20446;-75
2023/12/31 09:52:48;;;;;;;4.17;3.77;;;6.90;99.90;;;;;;5052180;28;20400;-75
2023/12/31 09:55:16;;;;;;;5.43;3.60;;;6.90;99.90;;;;;;5054722;28;20433;-76
2023/12/31 09:57:43;;;;;;;4.40;4.10;;;6.90;99.90;;;;;;5054670;28;20410;-75
2023/12/31 10:00:10;;;;;;;4.03;3.73;;;6.90;99.90;;;;;;5055479;28;20749;-76
2023/12/31 10:02:36;;;;;;;4.20;3.73;;;7.00;99.90;;;;;;5055984;28;20421;-75
2023/12/31 10:05:04;;;;;;;3.90;3.60;;;7.00;99.90;;;;;;5054671;28;20397;-73
2023/12/31 10:07:29;;;;;;;4.00;3.70;;;7.00;99.90;;;;;;5056070;28;20429;-72
2023/12/31 10:09:57;;;;;;;4.20;3.90;;;7.00;99.90;;;;;;5055347;28;20905;-73
2023/12/31 10:12:24;;;;;;;5.87;3.90;;;7.00;99.90;;;;;;5055015;28;20164;-76
2023/12/31 10:14:50;;;;;;;4.80;3.97;;;7.10;99.90;;;;;;5054477;28;20737;-72
2023/12/31 10:17:16;;;;;;;4.67;3.77;;;7.20;99.90;;;;;;5054455;28;20422;-73
2023/12/31 10:19:43;;;;;;;6.30;3.70;;;7.20;99.90;;;;;;5055268;28;20496;-74
2023/12/31 10:22:09;;;;;;;6.80;4.30;;;7.20;99.90;;;;;;5054957;28;20754;-73
2023/12/31 10:24:35;;;;;;;3.40;3.20;;;7.20;99.90;;;;;;5054109;28;20496;-73
2023/12/31 10:27:03;;;;;;;3.50;3.30;;;7.30;99.90;;;;;;5054889;28;20179;-76
2023/12/31 10:29:29;;;;;;;4.63;3.97;;;7.30;99.90;;;;;;5054994;28;20255;-72
2023/12/31 10:31:54;;;;;;;6.27;3.90;;;7.40;99.90;;;;;;5054636;28;20536;-75
2023/12/31 10:34:20;;;;;;;6.00;3.70;;;7.40;99.90;;;;;;5054214;28;20170;-74
2023/12/31 10:36:47;;;;;;;5.63;3.33;;;7.40;99.90;;;;;;5053484;28;20163;-71
2023/12/31 10:39:29;;;;;;;4.13;2.93;;;7.40;99.90;;;;;;5054765;28;20182;-72
2023/12/31 10:42:00;;;;;;;3.37;3.17;;;7.40;99.90;;;;;;5054605;28;20462;-72
2023/12/31 10:44:26;;;;;;;3.00;2.80;;;7.40;99.90;;;;;;5054644;28;20493;-76
2023/12/31 10:47:00;;;;;;;3.40;3.10;;;7.50;99.90;;;;;;5054109;28;20409;-76
2023/12/31 10:49:29;;;;;;;6.93;3.73;;;7.60;99.90;;;;;;5053277;28;20437;-74
2023/12/31 10:51:56;;;;;;;3.20;3.00;;;7.60;99.90;;;;;;5054253;28;20963;-76
2023/12/31 10:54:44;;;;;;;8.80;3.50;;;7.60;99.90;;;;;;5052652;28;20917;-72
2023/12/31 10:57:10;;;;;;;4.00;3.30;;;7.60;99.90;;;;;;5053882;28;20413;-76
2023/12/31 10:59:39;;;;;;;6.73;3.90;;;7.60;99.90;;;;;;5054253;28;20906;-73
2023/12/31 11:02:05;;;;;;;4.13;3.70;;;7.60;99.90;;;;;;5054018;28;20493;-76
2023/12/31 11:04:31;;;;;;;7.30;3.80;;;7.60;99.90;;;;;;5053728;28;20489;-75
2023/12/31 11:06:57;;;;;;;4.23;3.90;;;7.60;99.90;;;;;;5054188;28;20167;-71
2023/12/31 11:09:25;;;;;;;4.13;3.53;;;7.70;99.90;;;;;;5053486;28;20411;-73
2023/12/31 11:11:51;;;;;;;3.30;3.10;;;7.70;99.90;;;;;;5053751;28;20947;-74
2023/12/31 11:14:27;;;;;;;4.50;4.10;;;7.70;99.90;;;;;;5054035;28;20401;-74
2023/12/31 11:17:33;;;;;;;4.13;3.63;;;7.70;99.90;;;;;;5053054;28;20484;-76
2023/12/31 11:20:20;;;;;;;3.93;3.70;;;7.70;99.90;;;;;;5034075;28;20395;-74
2023/12/31 11:23:04;;;;;;;3.63;3.43;;;7.80;99.90;;;;;;5036417;28;20981;-74
2023/12/31 11:25:31;;;;;;;3.87;3.57;;;7.70;99.90;;;;;;5033180;28;20411;-74
2023/12/31 11:27:57;;;;;;;7.93;3.60;;;7.70;99.90;;;;;;5043627;28;20849;-77
2023/12/31 11:30:52;;;;;;;3.57;3.30;;;7.70;99.90;;;;;;5073130;28;20516;-72
2023/12/31 11:33:29;;;;;;;5.80;3.77;;;7.80;99.90;;;;;;5064246;28;20414;-77
2023/12/31 11:36:00;;;;;;;4.93;3.53;;;7.80;99.90;;;;;;5052754;28;20404;-77
2023/12/31 11:38:27;;;;;;;6.37;3.70;;;7.80;99.90;;;;;;5053639;28;20799;-72
2023/12/31 11:40:55;;;;;;;4.47;4.10;;;7.80;99.90;;;;;;5053675;28;20412;-73
2023/12/31 11:43:23;;;;;;;4.57;3.90;;;7.80;99.90;;;;;;5053650;28;20402;-74
2023/12/31 11:45:51;;;;;;;5.63;3.67;;;7.80;99.90;;;;;;5052199;28;20804;-73
2023/12/31 11:48:21;;;;;;;4.37;3.80;;;7.80;96.50;;;;;;5061745;28;20425;-74
2023/12/31 11:50:49;;;;;;;4.00;3.70;;;7.80;95.00;;;;;;5072971;28;20840;-73
2023/12/31 11:53:15;;;;;;;4.00;3.67;;;7.80;92.80;;;;;;5073500;28;20828;-73
2023/12/31 11:55:42;;;;;;;4.20;3.80;;;7.80;90.10;;;;;;5068673;28;20408;-76
2023/12/31 11:58:08;;;;;;;3.30;3.10;;;7.80;80.00;;;;;;5053229;28;20467;-76
2023/12/31 12:00:35;;;;;;;3.60;3.40;;;7.70;79.40;;;;;;5053331;28;20413;-76
2023/12/31 12:03:05;;;;;;;3.77;3.47;;;7.70;79.40;;;;;;5053198;28;20409;-74
2023/12/31 12:05:31;;;;;;;4.83;3.67;;;7.70;79.40;;;;;;5051889;28;20544;-73
2023/12/31 12:07:58;;;;;;;4.80;3.30;;;7.70;79.40;;;;;;5053142;28;20927;-76
2023/12/31 12:10:25;;;;;;;4.80;3.73;;;7.80;79.50;;;;;;5052751;28;20187;-74
2023/12/31 12:12:56;;;;;;;4.50;4.07;;;7.80;79.50;;;;;;5053002;28;20403;-73
2023/12/31 12:15:22;;;;;;;3.63;3.40;;;7.70;79.40;;;;;;5052034;28;20483;-77
2023/12/31 12:17:48;;;;;;;5.07;3.00;;;7.70;79.40;;;;;;5057443;28;20819;-75
2023/12/31 12:20:14;;;;;;;5.50;3.53;;;7.70;79.50;;;;;;5073043;28;20401;-78
2023/12/31 12:22:39;;;;;;;4.50;3.50;;;7.70;79.40;;;;;;5072943;28;20389;-74
2023/12/31 12:25:05;;;;;;;3.43;3.10;;;7.70;79.50;;;;;;5071897;28;20178;-73
2023/12/31 12:27:35;;;;;;;4.10;3.23;;;7.70;79.50;;;;;;5072811;28;20202;-75
2023/12/31 12:30:00;;;;;;;4.50;3.67;;;7.80;79.50;;;;;;5072639;28;20400;-77
2023/12/31 12:32:26;;;;;;;7.70;3.10;;;7.70;79.40;;;;;;5072001;28;20421;-72
2023/12/31 12:34:52;;;;;;;4.87;4.47;;;7.80;79.50;;;;;;5072083;28;20446;-76
2023/12/31 12:37:18;;;;;;;3.50;3.20;;;7.80;79.50;;;;;;5072746;28;20193;-72
2023/12/31 12:39:43;;;;;;;3.50;3.10;;;7.80;74.60;;;;;;5072447;28;20212;-76
2023/12/31 12:42:09;;;;;;;4.33;3.67;;;7.70;62.80;;;;;;5074384;28;20190;-75
2023/12/31 12:44:35;;;;;;;7.47;4.43;;;7.70;58.60;;;;;;5075931;28;20165;-75
2023/12/31 12:47:03;;;;;;;3.70;3.40;;;7.60;56.40;;;;;;5074826;28;20416;-76
2023/12/31 12:49:29;;;;;;;7.70;3.77;;;7.60;60.20;;;;;;5076534;28;20393;-77